sensor_id;sensor_type;location;lat;lon;timestamp;P1;durP1;ratioP1;P2;durP2;ratioP2
23015;SDS011;11674;52.428;13.584;2022-07-12T00:01:19;3.08;;;2.13;;
23015;SDS011;11674;52.428;13.584;2022-07-12T00:03:51;3.50;;;2.15;;
23015;SDS011;11674;52.428;13.584;2022-07-12T00:06:23;3.08;;;1.90;;
23015;SDS011;11674;52.428;13.584;2022-07-12T00:08:55;8.50;;;4.28;;
23015;SDS011;11674;52.428;13.584;2022-07-12T00:11:27;3.90;;;2.25;;
23015;SDS011;11674;52.428;13.584;2022-07-12T00:13:59;3.20;;;2.05;;
23015;SDS011;11674;52.428;13.584;2022-07-12T00:16:31;4.05;;;2.05;;
23015;SDS011;11674;52.428;13.584;2022-07-12T00:18:57;3.88;;;2.40;;
23015;SDS011;11674;52.428;13.584;2022-07-12T00:21:29;5.75;;;2.42;;
23015;SDS011;11674;52.428;13.584;2022-07-12T00:23:54;3.33;;;2.30;;
23015;SDS011;11674;52.428;13.584;2022-07-12T00:26:26;5.25;;;2.53;;
23015;SDS011;11674;52.428;13.584;2022-07-12T00:28:58;3.42;;;2.10;;
23015;SDS011;11674;52.428;13.584;2022-07-12T00:31:30;3.80;;;2.33;;
23015;SDS011;11674;52.428;13.584;2022-07-12T00:34:02;5.50;;;2.20;;
23015;SDS011;11674;52.428;13.584;2022-07-12T00:36:34;4.10;;;2.40;;
23015;SDS011;11674;52.428;13.584;2022-07-12T00:39:06;6.03;;;2.10;;
23015;SDS011;11674;52.428;13.584;2022-07-12T00:41:38;6.60;;;2.28;;
23015;SDS011;11674;52.428;13.584;2022-07-12T00:44:10;4.90;;;2.28;;
23015;SDS011;11674;52.428;13.584;2022-07-12T00:46:42;4.63;;;2.47;;
23015;SDS011;11674;52.428;13.584;2022-07-12T00:49:15;4.55;;;2.40;;
23015;SDS011;11674;52.428;13.584;2022-07-12T00:51:47;4.70;;;2.58;;
23015;SDS011;11674;52.428;13.584;2022-07-12T00:54:19;7.18;;;2.67;;
23015;SDS011;11674;52.428;13.584;2022-07-12T00:56:51;5.45;;;2.60;;
23015;SDS011;11674;52.428;13.584;2022-07-12T00:59:23;10.63;;;4.10;;
23015;SDS011;11674;52.428;13.584;2022-07-12T01:01:55;4.07;;;2.97;;
23015;SDS011;11674;52.428;13.584;2022-07-12T01:04:27;6.95;;;3.38;;
23015;SDS011;11674;52.428;13.584;2022-07-12T01:06:59;7.38;;;3.03;;
23015;SDS011;11674;52.428;13.584;2022-07-12T01:09:31;7.95;;;3.20;;
23015;SDS011;11674;52.428;13.584;2022-07-12T01:12:04;4.20;;;2.75;;
23015;SDS011;11674;52.428;13.584;2022-07-12T01:14:38;4.85;;;2.38;;
23015;SDS011;11674;52.428;13.584;2022-07-12T01:17:11;5.18;;;2.70;;
23015;SDS011;11674;52.428;13.584;2022-07-12T01:19:44;4.50;;;2.28;;
23015;SDS011;11674;52.428;13.584;2022-07-12T01:22:16;5.28;;;2.80;;
23015;SDS011;11674;52.428;13.584;2022-07-12T01:24:49;3.80;;;2.20;;
23015;SDS011;11674;52.428;13.584;2022-07-12T01:27:21;3.05;;;2.08;;
23015;SDS011;11674;52.428;13.584;2022-07-12T01:29:46;3.70;;;2.17;;
23015;SDS011;11674;52.428;13.584;2022-07-12T01:32:18;6.10;;;1.98;;
23015;SDS011;11674;52.428;13.584;2022-07-12T01:34:54;3.30;;;2.42;;
23015;SDS011;11674;52.428;13.584;2022-07-12T01:37:31;6.53;;;3.38;;
23015;SDS011;11674;52.428;13.584;2022-07-12T01:40:09;2.80;;;2.10;;
23015;SDS011;11674;52.428;13.584;2022-07-12T01:42:42;4.60;;;2.60;;
23015;SDS011;11674;52.428;13.584;2022-07-12T01:45:14;7.50;;;4.70;;
23015;SDS011;11674;52.428;13.584;2022-07-12T01:47:46;5.93;;;2.00;;
23015;SDS011;11674;52.428;13.584;2022-07-12T01:50:11;6.28;;;2.90;;
23015;SDS011;11674;52.428;13.584;2022-07-12T01:52:43;7.20;;;3.10;;
23015;SDS011;11674;52.428;13.584;2022-07-12T01:55:09;5.95;;;2.05;;
23015;SDS011;11674;52.428;13.584;2022-07-12T01:57:42;5.32;;;2.20;;
23015;SDS011;11674;52.428;13.584;2022-07-12T02:00:08;2.83;;;2.03;;
23015;SDS011;11674;52.428;13.584;2022-07-12T02:02:41;20.92;;;10.23;;
23015;SDS011;11674;52.428;13.584;2022-07-12T02:05:15;5.82;;;3.13;;
23015;SDS011;11674;52.428;13.584;2022-07-12T02:07:40;4.97;;;2.10;;
23015;SDS011;11674;52.428;13.584;2022-07-12T02:10:12;4.10;;;2.13;;
23015;SDS011;11674;52.428;13.584;2022-07-12T02:12:44;2.72;;;2.10;;
23015;SDS011;11674;52.428;13.584;2022-07-12T02:15:10;7.03;;;2.60;;
23015;SDS011;11674;52.428;13.584;2022-07-12T02:17:41;5.57;;;2.22;;
23015;SDS011;11674;52.428;13.584;2022-07-12T02:20:08;2.80;;;2.05;;
23015;SDS011;11674;52.428;13.584;2022-07-12T02:22:41;4.43;;;2.55;;
23015;SDS011;11674;52.428;13.584;2022-07-12T02:25:06;3.78;;;1.90;;
23015;SDS011;11674;52.428;13.584;2022-07-12T02:27:38;5.65;;;2.10;;
23015;SDS011;11674;52.428;13.584;2022-07-12T02:30:04;3.08;;;1.90;;
23015;SDS011;11674;52.428;13.584;2022-07-12T02:32:37;6.47;;;2.80;;
23015;SDS011;11674;52.428;13.584;2022-07-12T02:35:09;6.53;;;2.75;;
23015;SDS011;11674;52.428;13.584;2022-07-12T02:37:41;5.25;;;2.47;;
23015;SDS011;11674;52.428;13.584;2022-07-12T02:40:13;4.75;;;2.80;;
23015;SDS011;11674;52.428;13.584;2022-07-12T02:42:45;4.53;;;2.15;;
23015;SDS011;11674;52.428;13.584;2022-07-12T02:45:17;5.05;;;2.45;;
23015;SDS011;11674;52.428;13.584;2022-07-12T02:47:49;9.23;;;2.70;;
23015;SDS011;11674;52.428;13.584;2022-07-12T02:50:21;4.63;;;2.80;;
23015;SDS011;11674;52.428;13.584;2022-07-12T02:52:53;6.55;;;3.03;;
23015;SDS011;11674;52.428;13.584;2022-07-12T02:55:25;6.07;;;3.30;;
23015;SDS011;11674;52.428;13.584;2022-07-12T02:57:50;7.00;;;2.67;;
23015;SDS011;11674;52.428;13.584;2022-07-12T03:00:22;6.05;;;2.88;;
23015;SDS011;11674;52.428;13.584;2022-07-12T03:02:48;3.72;;;2.47;;
23015;SDS011;11674;52.428;13.584;2022-07-12T03:05:19;5.97;;;2.75;;
23015;SDS011;11674;52.428;13.584;2022-07-12T03:07:45;5.18;;;2.50;;
23015;SDS011;11674;52.428;13.584;2022-07-12T03:10:16;4.15;;;2.50;;
23015;SDS011;11674;52.428;13.584;2022-07-12T03:12:41;6.10;;;2.70;;
23015;SDS011;11674;52.428;13.584;2022-07-12T03:15:20;8.82;;;3.97;;
23015;SDS011;11674;52.428;13.584;2022-07-12T03:17:52;6.38;;;4.15;;
23015;SDS011;11674;52.428;13.584;2022-07-12T03:20:17;10.18;;;3.70;;
23015;SDS011;11674;52.428;13.584;2022-07-12T03:22:49;8.65;;;3.30;;
23015;SDS011;11674;52.428;13.584;2022-07-12T03:25:21;5.72;;;3.85;;
23015;SDS011;11674;52.428;13.584;2022-07-12T03:27:53;7.63;;;4.10;;
23015;SDS011;11674;52.428;13.584;2022-07-12T03:30:18;7.70;;;4.25;;
23015;SDS011;11674;52.428;13.584;2022-07-12T03:32:50;16.75;;;4.45;;
23015;SDS011;11674;52.428;13.584;2022-07-12T03:35:15;6.38;;;3.40;;
23015;SDS011;11674;52.428;13.584;2022-07-12T03:37:48;11.88;;;3.75;;
23015;SDS011;11674;52.428;13.584;2022-07-12T03:40:20;5.80;;;3.17;;
23015;SDS011;11674;52.428;13.584;2022-07-12T03:42:46;6.65;;;3.47;;
23015;SDS011;11674;52.428;13.584;2022-07-12T03:45:18;4.82;;;2.90;;
23015;SDS011;11674;52.428;13.584;2022-07-12T03:47:50;8.13;;;2.90;;
23015;SDS011;11674;52.428;13.584;2022-07-12T03:50:22;7.68;;;3.10;;
23015;SDS011;11674;52.428;13.584;2022-07-12T03:52:54;7.30;;;3.00;;
23015;SDS011;11674;52.428;13.584;2022-07-12T03:55:19;6.78;;;2.70;;
23015;SDS011;11674;52.428;13.584;2022-07-12T03:57:51;8.15;;;2.50;;
23015;SDS011;11674;52.428;13.584;2022-07-12T04:00:16;7.15;;;2.80;;
23015;SDS011;11674;52.428;13.584;2022-07-12T04:02:48;7.82;;;3.00;;
23015;SDS011;11674;52.428;13.584;2022-07-12T04:05:20;8.75;;;3.88;;
23015;SDS011;11674;52.428;13.584;2022-07-12T04:07:52;9.07;;;3.67;;
23015;SDS011;11674;52.428;13.584;2022-07-12T04:10:25;6.68;;;3.42;;
23015;SDS011;11674;52.428;13.584;2022-07-12T04:12:57;9.43;;;2.97;;
23015;SDS011;11674;52.428;13.584;2022-07-12T04:15:22;8.45;;;3.15;;
23015;SDS011;11674;52.428;13.584;2022-07-12T04:17:54;9.38;;;2.95;;
23015;SDS011;11674;52.428;13.584;2022-07-12T04:20:26;6.55;;;2.38;;
23015;SDS011;11674;52.428;13.584;2022-07-12T04:22:51;12.68;;;2.95;;
23015;SDS011;11674;52.428;13.584;2022-07-12T04:25:23;19.42;;;3.25;;
23015;SDS011;11674;52.428;13.584;2022-07-12T04:27:55;12.40;;;2.53;;
23015;SDS011;11674;52.428;13.584;2022-07-12T04:30:27;10.98;;;3.25;;
23015;SDS011;11674;52.428;13.584;2022-07-12T04:32:59;5.70;;;2.20;;
23015;SDS011;11674;52.428;13.584;2022-07-12T04:35:31;6.60;;;1.92;;
23015;SDS011;11674;52.428;13.584;2022-07-12T04:37:57;4.97;;;2.00;;
23015;SDS011;11674;52.428;13.584;2022-07-12T04:40:30;8.75;;;2.30;;
23015;SDS011;11674;52.428;13.584;2022-07-12T04:43:02;2.75;;;1.83;;
23015;SDS011;11674;52.428;13.584;2022-07-12T04:45:34;4.57;;;1.73;;
23015;SDS011;11674;52.428;13.584;2022-07-12T04:47:59;6.17;;;1.90;;
23015;SDS011;11674;52.428;13.584;2022-07-12T04:50:31;3.35;;;1.70;;
23015;SDS011;11674;52.428;13.584;2022-07-12T04:53:03;3.60;;;1.20;;
23015;SDS011;11674;52.428;13.584;2022-07-12T04:55:29;4.55;;;1.50;;
23015;SDS011;11674;52.428;13.584;2022-07-12T04:58:01;4.55;;;1.27;;
23015;SDS011;11674;52.428;13.584;2022-07-12T05:00:34;5.05;;;1.27;;
23015;SDS011;11674;52.428;13.584;2022-07-12T05:03:06;3.00;;;1.20;;
23015;SDS011;11674;52.428;13.584;2022-07-12T05:05:38;1.65;;;1.00;;
23015;SDS011;11674;52.428;13.584;2022-07-12T05:08:10;2.15;;;1.17;;
23015;SDS011;11674;52.428;13.584;2022-07-12T05:10:42;8.70;;;1.73;;
23015;SDS011;11674;52.428;13.584;2022-07-12T05:13:14;9.27;;;1.55;;
23015;SDS011;11674;52.428;13.584;2022-07-12T05:15:46;11.57;;;1.52;;
23015;SDS011;11674;52.428;13.584;2022-07-12T05:18:18;7.57;;;1.20;;
23015;SDS011;11674;52.428;13.584;2022-07-12T05:20:50;9.73;;;1.55;;
23015;SDS011;11674;52.428;13.584;2022-07-12T05:23:22;7.38;;;1.20;;
23015;SDS011;11674;52.428;13.584;2022-07-12T05:25:54;2.22;;;0.90;;
23015;SDS011;11674;52.428;13.584;2022-07-12T05:28:26;7.78;;;1.60;;
23015;SDS011;11674;52.428;13.584;2022-07-12T05:30:58;2.88;;;1.17;;
23015;SDS011;11674;52.428;13.584;2022-07-12T05:33:30;3.90;;;1.10;;
23015;SDS011;11674;52.428;13.584;2022-07-12T05:36:02;5.15;;;1.30;;
23015;SDS011;11674;52.428;13.584;2022-07-12T05:38:34;8.57;;;1.42;;
23015;SDS011;11674;52.428;13.584;2022-07-12T05:41:06;3.08;;;1.00;;
23015;SDS011;11674;52.428;13.584;2022-07-12T05:43:38;2.70;;;0.98;;
23015;SDS011;11674;52.428;13.584;2022-07-12T05:46:10;2.17;;;0.88;;
23015;SDS011;11674;52.428;13.584;2022-07-12T05:48:42;6.50;;;1.15;;
23015;SDS011;11674;52.428;13.584;2022-07-12T05:51:14;15.30;;;2.00;;
23015;SDS011;11674;52.428;13.584;2022-07-12T05:53:46;4.55;;;1.60;;
23015;SDS011;11674;52.428;13.584;2022-07-12T05:56:18;3.47;;;0.70;;
23015;SDS011;11674;52.428;13.584;2022-07-12T05:58:50;6.55;;;0.80;;
23015;SDS011;11674;52.428;13.584;2022-07-12T06:01:22;1.02;;;0.50;;
23015;SDS011;11674;52.428;13.584;2022-07-12T06:03:54;3.50;;;0.90;;
23015;SDS011;11674;52.428;13.584;2022-07-12T06:06:26;2.42;;;0.90;;
23015;SDS011;11674;52.428;13.584;2022-07-12T06:08:58;1.35;;;0.80;;
23015;SDS011;11674;52.428;13.584;2022-07-12T06:11:30;1.85;;;0.70;;
23015;SDS011;11674;52.428;13.584;2022-07-12T06:14:02;2.67;;;0.82;;
23015;SDS011;11674;52.428;13.584;2022-07-12T06:16:34;1.55;;;0.77;;
23015;SDS011;11674;52.428;13.584;2022-07-12T06:19:06;2.53;;;0.77;;
23015;SDS011;11674;52.428;13.584;2022-07-12T06:21:38;3.92;;;0.75;;
23015;SDS011;11674;52.428;13.584;2022-07-12T06:24:10;11.43;;;1.30;;
23015;SDS011;11674;52.428;13.584;2022-07-12T06:26:42;4.35;;;1.13;;
23015;SDS011;11674;52.428;13.584;2022-07-12T06:29:14;2.85;;;0.85;;
23015;SDS011;11674;52.428;13.584;2022-07-12T06:31:46;2.13;;;0.73;;
23015;SDS011;11674;52.428;13.584;2022-07-12T06:34:18;3.60;;;0.90;;
23015;SDS011;11674;52.428;13.584;2022-07-12T06:36:50;5.38;;;0.95;;
23015;SDS011;11674;52.428;13.584;2022-07-12T06:39:22;2.30;;;0.90;;
23015;SDS011;11674;52.428;13.584;2022-07-12T06:41:54;3.72;;;0.70;;
23015;SDS011;11674;52.428;13.584;2022-07-12T06:44:26;2.50;;;0.88;;
23015;SDS011;11674;52.428;13.584;2022-07-12T06:46:58;3.42;;;0.85;;
23015;SDS011;11674;52.428;13.584;2022-07-12T06:49:41;2.55;;;0.70;;
23015;SDS011;11674;52.428;13.584;2022-07-12T06:52:13;1.42;;;0.80;;
23015;SDS011;11674;52.428;13.584;2022-07-12T06:54:45;2.38;;;0.80;;
23015;SDS011;11674;52.428;13.584;2022-07-12T06:57:17;2.92;;;0.70;;
23015;SDS011;11674;52.428;13.584;2022-07-12T06:59:56;1.67;;;0.63;;
23015;SDS011;11674;52.428;13.584;2022-07-12T07:02:28;5.25;;;1.23;;
23015;SDS011;11674;52.428;13.584;2022-07-12T07:05:00;6.25;;;1.23;;
23015;SDS011;11674;52.428;13.584;2022-07-12T07:07:32;5.32;;;0.93;;
23015;SDS011;11674;52.428;13.584;2022-07-12T07:10:04;12.60;;;1.05;;
23015;SDS011;11674;52.428;13.584;2022-07-12T07:12:36;1.65;;;0.70;;
23015;SDS011;11674;52.428;13.584;2022-07-12T07:15:08;5.80;;;1.00;;
23015;SDS011;11674;52.428;13.584;2022-07-12T07:17:40;0.90;;;0.70;;
23015;SDS011;11674;52.428;13.584;2022-07-12T07:20:12;4.30;;;1.10;;
23015;SDS011;11674;52.428;13.584;2022-07-12T07:22:44;2.85;;;0.88;;
23015;SDS011;11674;52.428;13.584;2022-07-12T07:25:16;1.63;;;0.80;;
23015;SDS011;11674;52.428;13.584;2022-07-12T07:27:48;2.53;;;0.85;;
23015;SDS011;11674;52.428;13.584;2022-07-12T07:30:20;2.70;;;0.73;;
23015;SDS011;11674;52.428;13.584;2022-07-12T07:32:52;4.00;;;1.00;;
23015;SDS011;11674;52.428;13.584;2022-07-12T07:35:24;3.55;;;0.80;;
23015;SDS011;11674;52.428;13.584;2022-07-12T07:37:56;3.92;;;0.85;;
23015;SDS011;11674;52.428;13.584;2022-07-12T07:40:28;4.40;;;0.70;;
23015;SDS011;11674;52.428;13.584;2022-07-12T07:43:00;6.78;;;1.10;;
23015;SDS011;11674;52.428;13.584;2022-07-12T07:45:32;2.95;;;0.80;;
23015;SDS011;11674;52.428;13.584;2022-07-12T07:48:04;4.70;;;0.90;;
23015;SDS011;11674;52.428;13.584;2022-07-12T07:50:37;3.15;;;0.80;;
23015;SDS011;11674;52.428;13.584;2022-07-12T07:53:09;7.07;;;1.00;;
23015;SDS011;11674;52.428;13.584;2022-07-12T07:55:41;2.83;;;0.93;;
23015;SDS011;11674;52.428;13.584;2022-07-12T07:58:16;3.75;;;0.80;;
23015;SDS011;11674;52.428;13.584;2022-07-12T08:00:52;5.97;;;0.88;;
23015;SDS011;11674;52.428;13.584;2022-07-12T08:03:24;2.00;;;0.70;;
23015;SDS011;11674;52.428;13.584;2022-07-12T08:05:56;5.68;;;0.73;;
23015;SDS011;11674;52.428;13.584;2022-07-12T08:08:28;2.70;;;0.70;;
23015;SDS011;11674;52.428;13.584;2022-07-12T08:11:00;5.50;;;0.80;;
23015;SDS011;11674;52.428;13.584;2022-07-12T08:13:32;9.85;;;1.05;;
23015;SDS011;11674;52.428;13.584;2022-07-12T08:16:04;6.13;;;0.90;;
23015;SDS011;11674;52.428;13.584;2022-07-12T08:18:36;1.95;;;0.85;;
23015;SDS011;11674;52.428;13.584;2022-07-12T08:21:08;3.00;;;0.90;;
23015;SDS011;11674;52.428;13.584;2022-07-12T08:23:40;8.48;;;1.10;;
23015;SDS011;11674;52.428;13.584;2022-07-12T08:26:12;2.55;;;0.70;;
23015;SDS011;11674;52.428;13.584;2022-07-12T08:28:44;10.60;;;1.20;;
23015;SDS011;11674;52.428;13.584;2022-07-12T08:31:16;6.55;;;0.82;;
23015;SDS011;11674;52.428;13.584;2022-07-12T08:33:48;0.70;;;0.68;;
23015;SDS011;11674;52.428;13.584;2022-07-12T08:36:20;4.07;;;0.80;;
23015;SDS011;11674;52.428;13.584;2022-07-12T08:38:52;2.08;;;0.63;;
23015;SDS011;11674;52.428;13.584;2022-07-12T08:41:24;5.07;;;0.70;;
23015;SDS011;11674;52.428;13.584;2022-07-12T08:43:56;2.45;;;0.80;;
23015;SDS011;11674;52.428;13.584;2022-07-12T08:46:28;2.80;;;0.55;;
23015;SDS011;11674;52.428;13.584;2022-07-12T08:49:04;4.95;;;0.70;;
23015;SDS011;11674;52.428;13.584;2022-07-12T08:51:39;2.03;;;0.85;;
23015;SDS011;11674;52.428;13.584;2022-07-12T08:54:12;1.25;;;0.60;;
23015;SDS011;11674;52.428;13.584;2022-07-12T08:56:44;1.30;;;0.60;;
23015;SDS011;11674;52.428;13.584;2022-07-12T09:01:52;3.85;;;0.85;;
23015;SDS011;11674;52.428;13.584;2022-07-12T09:04:26;2.13;;;0.63;;
23015;SDS011;11674;52.428;13.584;2022-07-12T09:06:52;2.05;;;0.95;;
23015;SDS011;11674;52.428;13.584;2022-07-12T09:09:25;1.80;;;0.80;;
23015;SDS011;11674;52.428;13.584;2022-07-12T09:11:57;8.48;;;0.90;;
23015;SDS011;11674;52.428;13.584;2022-07-12T09:14:29;2.05;;;0.57;;
23015;SDS011;11674;52.428;13.584;2022-07-12T09:19:38;1.77;;;0.80;;
23015;SDS011;11674;52.428;13.584;2022-07-12T09:22:14;2.53;;;1.48;;
23015;SDS011;11674;52.428;13.584;2022-07-12T09:24:46;3.38;;;1.77;;
23015;SDS011;11674;52.428;13.584;2022-07-12T09:27:24;0.60;;;0.60;;
23015;SDS011;11674;52.428;13.584;2022-07-12T09:29:56;2.45;;;1.15;;
23015;SDS011;11674;52.428;13.584;2022-07-12T09:32:28;5.57;;;1.38;;
23015;SDS011;11674;52.428;13.584;2022-07-12T09:35:01;0.80;;;0.63;;
23015;SDS011;11674;52.428;13.584;2022-07-12T09:37:35;3.40;;;0.80;;
23015;SDS011;11674;52.428;13.584;2022-07-12T09:40:10;3.30;;;0.90;;
23015;SDS011;11674;52.428;13.584;2022-07-12T09:42:36;1.75;;;0.70;;
23015;SDS011;11674;52.428;13.584;2022-07-12T09:45:10;1.23;;;0.70;;
23015;SDS011;11674;52.428;13.584;2022-07-12T09:47:42;2.90;;;0.60;;
23015;SDS011;11674;52.428;13.584;2022-07-12T09:50:15;8.18;;;0.80;;
23015;SDS011;11674;52.428;13.584;2022-07-12T09:52:48;3.88;;;0.70;;
23015;SDS011;11674;52.428;13.584;2022-07-12T09:55:20;1.85;;;0.70;;
23015;SDS011;11674;52.428;13.584;2022-07-12T09:57:56;1.73;;;0.80;;
23015;SDS011;11674;52.428;13.584;2022-07-12T10:00:33;8.48;;;0.93;;
23015;SDS011;11674;52.428;13.584;2022-07-12T10:03:05;3.08;;;0.93;;
23015;SDS011;11674;52.428;13.584;2022-07-12T10:05:40;1.42;;;0.80;;
23015;SDS011;11674;52.428;13.584;2022-07-12T10:08:13;2.60;;;0.80;;
23015;SDS011;11674;52.428;13.584;2022-07-12T10:10:45;2.13;;;1.20;;
23015;SDS011;11674;52.428;13.584;2022-07-12T10:13:19;6.50;;;1.20;;
23015;SDS011;11674;52.428;13.584;2022-07-12T10:15:51;7.85;;;2.05;;
23015;SDS011;11674;52.428;13.584;2022-07-12T10:18:29;1.88;;;0.90;;
23015;SDS011;11674;52.428;13.584;2022-07-12T10:21:01;7.72;;;1.05;;
23015;SDS011;11674;52.428;13.584;2022-07-12T10:23:49;1.15;;;0.88;;
23015;SDS011;11674;52.428;13.584;2022-07-12T10:26:54;2.05;;;0.68;;
23015;SDS011;11674;52.428;13.584;2022-07-12T10:29:19;1.45;;;0.47;;
23015;SDS011;11674;52.428;13.584;2022-07-12T10:31:52;1.42;;;0.80;;
23015;SDS011;11674;52.428;13.584;2022-07-12T10:34:24;2.08;;;0.55;;
23015;SDS011;11674;52.428;13.584;2022-07-12T10:39:28;5.57;;;1.02;;
23015;SDS011;11674;52.428;13.584;2022-07-12T10:44:39;3.72;;;0.82;;
23015;SDS011;11674;52.428;13.584;2022-07-12T10:47:15;0.77;;;0.60;;
23015;SDS011;11674;52.428;13.584;2022-07-12T10:49:48;3.38;;;1.02;;
23015;SDS011;11674;52.428;13.584;2022-07-12T10:52:25;2.75;;;1.20;;
23015;SDS011;11674;52.428;13.584;2022-07-12T10:57:42;1.83;;;0.68;;
23015;SDS011;11674;52.428;13.584;2022-07-12T11:00:19;7.93;;;1.57;;
23015;SDS011;11674;52.428;13.584;2022-07-12T11:02:51;1.75;;;0.90;;
23015;SDS011;11674;52.428;13.584;2022-07-12T11:05:24;3.05;;;0.75;;
23015;SDS011;11674;52.428;13.584;2022-07-12T11:07:56;1.80;;;0.50;;
23015;SDS011;11674;52.428;13.584;2022-07-12T11:10:28;5.45;;;0.90;;
23015;SDS011;11674;52.428;13.584;2022-07-12T11:13:00;4.22;;;1.00;;
23015;SDS011;11674;52.428;13.584;2022-07-12T11:15:32;2.65;;;0.80;;
23015;SDS011;11674;52.428;13.584;2022-07-12T11:18:04;1.73;;;0.63;;
23015;SDS011;11674;52.428;13.584;2022-07-12T11:20:36;4.38;;;0.82;;
23015;SDS011;11674;52.428;13.584;2022-07-12T11:23:08;1.05;;;0.70;;
23015;SDS011;11674;52.428;13.584;2022-07-12T11:25:40;1.42;;;0.52;;
23015;SDS011;11674;52.428;13.584;2022-07-12T11:28:12;0.73;;;0.55;;
23015;SDS011;11674;52.428;13.584;2022-07-12T11:30:48;1.80;;;0.60;;
23015;SDS011;11674;52.428;13.584;2022-07-12T11:33:29;8.07;;;0.98;;
23015;SDS011;11674;52.428;13.584;2022-07-12T11:36:03;6.60;;;0.80;;
23015;SDS011;11674;52.428;13.584;2022-07-12T11:38:37;2.17;;;0.80;;
23015;SDS011;11674;52.428;13.584;2022-07-12T11:41:11;0.60;;;0.60;;
23015;SDS011;11674;52.428;13.584;2022-07-12T11:43:44;4.15;;;1.33;;
23015;SDS011;11674;52.428;13.584;2022-07-12T11:46:16;5.15;;;2.78;;
23015;SDS011;11674;52.428;13.584;2022-07-12T11:48:48;2.17;;;1.00;;
23015;SDS011;11674;52.428;13.584;2022-07-12T11:51:20;4.38;;;1.15;;
23015;SDS011;11674;52.428;13.584;2022-07-12T11:53:57;3.38;;;1.30;;
23015;SDS011;11674;52.428;13.584;2022-07-12T11:56:29;2.53;;;0.90;;
23015;SDS011;11674;52.428;13.584;2022-07-12T11:59:01;2.00;;;0.52;;
23015;SDS011;11674;52.428;13.584;2022-07-12T12:01:33;6.25;;;1.02;;
23015;SDS011;11674;52.428;13.584;2022-07-12T12:04:10;2.20;;;0.75;;
23015;SDS011;11674;52.428;13.584;2022-07-12T12:06:42;1.35;;;0.60;;
23015;SDS011;11674;52.428;13.584;2022-07-12T12:09:14;3.40;;;0.88;;
23015;SDS011;11674;52.428;13.584;2022-07-12T12:11:46;1.70;;;0.57;;
23015;SDS011;11674;52.428;13.584;2022-07-12T12:14:18;2.67;;;0.65;;
23015;SDS011;11674;52.428;13.584;2022-07-12T12:16:50;1.73;;;0.60;;
23015;SDS011;11674;52.428;13.584;2022-07-12T12:19:25;1.17;;;0.70;;
23015;SDS011;11674;52.428;13.584;2022-07-12T12:21:56;0.65;;;0.52;;
23015;SDS011;11674;52.428;13.584;2022-07-12T12:24:28;5.05;;;0.60;;
23015;SDS011;11674;52.428;13.584;2022-07-12T12:27:00;2.60;;;0.70;;
23015;SDS011;11674;52.428;13.584;2022-07-12T12:29:39;6.18;;;0.80;;
23015;SDS011;11674;52.428;13.584;2022-07-12T12:32:16;1.45;;;0.73;;
23015;SDS011;11674;52.428;13.584;2022-07-12T12:35:04;4.28;;;2.33;;
23015;SDS011;11674;52.428;13.584;2022-07-12T12:37:37;2.42;;;1.05;;
23015;SDS011;11674;52.428;13.584;2022-07-12T12:40:09;9.45;;;4.22;;
23015;SDS011;11674;52.428;13.584;2022-07-12T12:42:41;1.63;;;1.15;;
23015;SDS011;11674;52.428;13.584;2022-07-12T12:45:17;4.20;;;0.82;;
23015;SDS011;11674;52.428;13.584;2022-07-12T12:47:51;1.65;;;0.90;;
23015;SDS011;11674;52.428;13.584;2022-07-12T12:50:37;2.30;;;0.90;;
23015;SDS011;11674;52.428;13.584;2022-07-12T12:53:18;5.25;;;0.70;;
23015;SDS011;11674;52.428;13.584;2022-07-12T12:55:52;2.42;;;0.70;;
23015;SDS011;11674;52.428;13.584;2022-07-12T12:58:26;3.55;;;0.82;;
23015;SDS011;11674;52.428;13.584;2022-07-12T13:00:52;1.42;;;0.70;;
23015;SDS011;11674;52.428;13.584;2022-07-12T13:03:26;2.92;;;0.80;;
23015;SDS011;11674;52.428;13.584;2022-07-12T13:05:51;1.60;;;0.70;;
23015;SDS011;11674;52.428;13.584;2022-07-12T13:08:24;1.88;;;0.68;;
23015;SDS011;11674;52.428;13.584;2022-07-12T13:10:56;1.10;;;0.60;;
23015;SDS011;11674;52.428;13.584;2022-07-12T13:13:22;3.20;;;0.68;;
23015;SDS011;11674;52.428;13.584;2022-07-12T13:15:53;3.83;;;0.60;;
23015;SDS011;11674;52.428;13.584;2022-07-12T13:18:19;1.70;;;0.60;;
23015;SDS011;11674;52.428;13.584;2022-07-12T13:20:50;4.97;;;1.08;;
23015;SDS011;11674;52.428;13.584;2022-07-12T13:23:22;2.47;;;0.70;;
23015;SDS011;11674;52.428;13.584;2022-07-12T13:25:54;1.35;;;0.47;;
23015;SDS011;11674;52.428;13.584;2022-07-12T13:28:27;2.67;;;0.70;;
23015;SDS011;11674;52.428;13.584;2022-07-12T13:30:59;5.47;;;0.82;;
23015;SDS011;11674;52.428;13.584;2022-07-12T13:33:31;0.85;;;0.50;;
23015;SDS011;11674;52.428;13.584;2022-07-12T13:35:57;6.47;;;0.73;;
23015;SDS011;11674;52.428;13.584;2022-07-12T13:38:29;4.63;;;0.95;;
23015;SDS011;11674;52.428;13.584;2022-07-12T13:41:01;3.60;;;0.73;;
23015;SDS011;11674;52.428;13.584;2022-07-12T13:43:27;4.17;;;0.63;;
23015;SDS011;11674;52.428;13.584;2022-07-12T13:45:58;3.75;;;0.90;;
23015;SDS011;11674;52.428;13.584;2022-07-12T13:48:30;6.13;;;0.73;;
23015;SDS011;11674;52.428;13.584;2022-07-12T13:51:02;1.20;;;0.52;;
23015;SDS011;11674;52.428;13.584;2022-07-12T13:53:34;2.30;;;0.60;;
23015;SDS011;11674;52.428;13.584;2022-07-12T13:56:13;4.00;;;0.88;;
23015;SDS011;11674;52.428;13.584;2022-07-12T13:58:45;2.30;;;0.70;;
23015;SDS011;11674;52.428;13.584;2022-07-12T14:01:17;6.75;;;0.60;;
23015;SDS011;11674;52.428;13.584;2022-07-12T14:03:43;2.92;;;1.00;;
23015;SDS011;11674;52.428;13.584;2022-07-12T14:06:14;1.77;;;0.80;;
23015;SDS011;11674;52.428;13.584;2022-07-12T14:08:46;3.55;;;0.98;;
23015;SDS011;11674;52.428;13.584;2022-07-12T14:11:12;1.13;;;0.60;;
23015;SDS011;11674;52.428;13.584;2022-07-12T14:13:45;1.48;;;0.55;;
23015;SDS011;11674;52.428;13.584;2022-07-12T14:17:20;3.67;;;1.00;;
23015;SDS011;11674;52.428;13.584;2022-07-12T14:19:52;5.45;;;1.83;;
23015;SDS011;11674;52.428;13.584;2022-07-12T14:22:25;3.53;;;1.20;;
23015;SDS011;11674;52.428;13.584;2022-07-12T14:24:56;1.30;;;0.60;;
23015;SDS011;11674;52.428;13.584;2022-07-12T14:27:22;6.70;;;0.88;;
23015;SDS011;11674;52.428;13.584;2022-07-12T14:29:53;5.43;;;0.85;;
23015;SDS011;11674;52.428;13.584;2022-07-12T14:32:25;2.45;;;0.70;;
23015;SDS011;11674;52.428;13.584;2022-07-12T14:34:58;2.40;;;0.82;;
23015;SDS011;11674;52.428;13.584;2022-07-12T14:37:23;6.47;;;0.70;;
23015;SDS011;11674;52.428;13.584;2022-07-12T14:39:55;1.13;;;0.52;;
23015;SDS011;11674;52.428;13.584;2022-07-12T14:42:27;3.55;;;0.68;;
23015;SDS011;11674;52.428;13.584;2022-07-12T14:44:59;5.57;;;0.80;;
23015;SDS011;11674;52.428;13.584;2022-07-12T14:47:31;2.03;;;0.73;;
23015;SDS011;11674;52.428;13.584;2022-07-12T14:50:04;16.30;;;1.10;;
23015;SDS011;11674;52.428;13.584;2022-07-12T14:52:35;2.30;;;0.88;;
23015;SDS011;11674;52.428;13.584;2022-07-12T14:55:07;3.28;;;0.80;;
23015;SDS011;11674;52.428;13.584;2022-07-12T14:57:39;1.90;;;0.75;;
23015;SDS011;11674;52.428;13.584;2022-07-12T15:00:12;3.13;;;1.30;;
23015;SDS011;11674;52.428;13.584;2022-07-12T15:02:43;3.22;;;2.40;;
23015;SDS011;11674;52.428;13.584;2022-07-12T15:05:15;3.10;;;1.30;;
23015;SDS011;11674;52.428;13.584;2022-07-12T15:07:47;1.83;;;0.73;;
23015;SDS011;11674;52.428;13.584;2022-07-12T15:10:19;3.80;;;2.58;;
23015;SDS011;11674;52.428;13.584;2022-07-12T15:12:51;3.63;;;1.25;;
23015;SDS011;11674;52.428;13.584;2022-07-12T15:15:24;1.13;;;0.98;;